sensor_id;sensor_type;location;lat;lon;timestamp;pressure;altitude;pressure_sealevel;temperature;humidity
78773;BME280;68111;44.728;11.290;2024-01-07T00:00:41;99662.13;;;15.62;52.31
78773;BME280;68111;44.728;11.290;2024-01-07T00:03:08;99661.22;;;15.63;52.00
78773;BME280;68111;44.728;11.290;2024-01-07T00:05:36;99662.94;;;15.64;52.13
78773;BME280;68111;44.728;11.290;2024-01-07T00:08:04;99670.94;;;15.64;52.29
78773;BME280;68111;44.728;11.290;2024-01-07T00:10:31;99663.00;;;15.62;52.00
78773;BME280;68111;44.728;11.290;2024-01-07T00:12:57;99664.84;;;15.60;52.04
78773;BME280;68111;44.728;11.290;2024-01-07T00:15:24;99667.53;;;15.59;52.21
78773;BME280;68111;44.728;11.290;2024-01-07T00:17:53;99667.53;;;15.59;52.17
78773;BME280;68111;44.728;11.290;2024-01-07T00:20:20;99663.94;;;15.60;52.26
78773;BME280;68111;44.728;11.290;2024-01-07T00:22:47;99669.25;;;15.61;52.03
78773;BME280;68111;44.728;11.290;2024-01-07T00:25:14;99670.94;;;15.64;51.88
78773;BME280;68111;44.728;11.290;2024-01-07T00:27:41;99651.38;;;15.65;51.93
78773;BME280;68111;44.728;11.290;2024-01-07T00:30:08;99666.44;;;15.66;51.84
78773;BME280;68111;44.728;11.290;2024-01-07T00:32:35;99670.84;;;15.67;51.68
78773;BME280;68111;44.728;11.290;2024-01-07T00:35:02;99661.09;;;15.66;51.81
78773;BME280;68111;44.728;11.290;2024-01-07T00:37:29;99669.97;;;15.66;51.75
78773;BME280;68111;44.728;11.290;2024-01-07T00:39:56;99677.94;;;15.66;51.65
78773;BME280;68111;44.728;11.290;2024-01-07T00:42:23;99673.56;;;15.65;51.66
78773;BME280;68111;44.728;11.290;2024-01-07T00:44:49;99678.00;;;15.65;51.59
78773;BME280;68111;44.728;11.290;2024-01-07T00:47:16;99674.41;;;15.66;51.73
78773;BME280;68111;44.728;11.290;2024-01-07T00:49:43;99668.22;;;15.65;51.74
78773;BME280;68111;44.728;11.290;2024-01-07T00:52:10;99677.03;;;15.67;51.70
78773;BME280;68111;44.728;11.290;2024-01-07T00:54:38;99681.50;;;15.67;51.68
78773;BME280;68111;44.728;11.290;2024-01-07T00:57:05;99683.22;;;15.68;51.76
78773;BME280;68111;44.728;11.290;2024-01-07T00:59:32;99683.22;;;15.68;51.73
78773;BME280;68111;44.728;11.290;2024-01-07T01:01:58;99679.63;;;15.69;51.53
78773;BME280;68111;44.728;11.290;2024-01-07T01:04:25;99685.78;;;15.71;50.95
78773;BME280;68111;44.728;11.290;2024-01-07T01:06:52;99698.19;;;15.72;51.37
78773;BME280;68111;44.728;11.290;2024-01-07T01:09:19;99699.09;;;15.71;51.53
78773;BME280;68111;44.728;11.290;2024-01-07T01:11:46;99699.16;;;15.70;51.51
78773;BME280;68111;44.728;11.290;2024-01-07T01:14:13;99708.13;;;15.67;51.37
78773;BME280;68111;44.728;11.290;2024-01-07T01:16:40;99709.97;;;15.65;51.38
78773;BME280;68111;44.728;11.290;2024-01-07T01:19:06;99711.78;;;15.64;51.37
78773;BME280;68111;44.728;11.290;2024-01-07T01:21:34;99714.50;;;15.63;51.61
78773;BME280;68111;44.728;11.290;2024-01-07T01:24:01;99714.50;;;15.63;51.40
78773;BME280;68111;44.728;11.290;2024-01-07T01:26:28;99712.69;;;15.63;51.70
78773;BME280;68111;44.728;11.290;2024-01-07T01:28:55;99718.91;;;15.64;51.54
78773;BME280;68111;44.728;11.290;2024-01-07T01:31:22;99717.97;;;15.65;51.44
78773;BME280;68111;44.728;11.290;2024-01-07T01:33:49;99717.91;;;15.66;51.48
78773;BME280;68111;44.728;11.290;2024-01-07T01:36:15;99709.88;;;15.68;51.32
78773;BME280;68111;44.728;11.290;2024-01-07T01:38:42;99716.94;;;15.69;51.37
78773;BME280;68111;44.728;11.290;2024-01-07T01:41:09;99714.28;;;15.69;51.30
78773;BME280;68111;44.728;11.290;2024-01-07T01:43:36;99716.88;;;15.71;51.31
78773;BME280;68111;44.728;11.290;2024-01-07T01:46:03;99706.22;;;15.71;51.47
78773;BME280;68111;44.728;11.290;2024-01-07T01:48:30;99711.50;;;15.72;51.41
78773;BME280;68111;44.728;11.290;2024-01-07T01:50:57;99714.13;;;15.74;51.14
78773;BME280;68111;44.728;11.290;2024-01-07T01:53:25;99704.31;;;15.74;51.17
78773;BME280;68111;44.728;11.290;2024-01-07T01:55:55;99707.84;;;15.75;51.17
78773;BME280;68111;44.728;11.290;2024-01-07T01:58:23;99701.66;;;15.74;50.98
78773;BME280;68111;44.728;11.290;2024-01-07T02:00:50;99701.66;;;15.74;50.89
78773;BME280;68111;44.728;11.290;2024-01-07T02:03:18;99711.41;;;15.75;50.85
78773;BME280;68111;44.728;11.290;2024-01-07T02:05:45;99700.75;;;15.75;50.93
78773;BME280;68111;44.728;11.290;2024-01-07T02:08:12;99700.75;;;15.75;50.95
78773;BME280;68111;44.728;11.290;2024-01-07T02:10:39;99706.06;;;15.75;50.87
78773;BME280;68111;44.728;11.290;2024-01-07T02:13:08;99700.75;;;15.75;50.74
78773;BME280;68111;44.728;11.290;2024-01-07T02:15:35;99702.47;;;15.76;50.96
78773;BME280;68111;44.728;11.290;2024-01-07T02:18:03;99702.47;;;15.76;50.95
78773;BME280;68111;44.728;11.290;2024-01-07T02:20:29;99697.16;;;15.76;50.65
78773;BME280;68111;44.728;11.290;2024-01-07T02:22:56;99700.75;;;15.75;50.63
78773;BME280;68111;44.728;11.290;2024-01-07T02:25:26;99700.75;;;15.75;50.74
78773;BME280;68111;44.728;11.290;2024-01-07T02:27:53;99699.88;;;15.75;50.63
78773;BME280;68111;44.728;11.290;2024-01-07T02:30:19;99701.66;;;15.74;50.86
78773;BME280;68111;44.728;11.290;2024-01-07T02:32:46;99703.47;;;15.74;50.79
78773;BME280;68111;44.728;11.290;2024-01-07T02:35:13;99695.50;;;15.72;50.84
78773;BME280;68111;44.728;11.290;2024-01-07T02:37:40;99692.84;;;15.72;50.88
78773;BME280;68111;44.728;11.290;2024-01-07T02:40:07;99698.13;;;15.74;50.85
78773;BME280;68111;44.728;11.290;2024-01-07T02:42:34;99700.78;;;15.74;50.55
78773;BME280;68111;44.728;11.290;2024-01-07T02:45:01;99696.34;;;15.74;50.60
78773;BME280;68111;44.728;11.290;2024-01-07T02:47:28;99702.59;;;15.73;50.86
78773;BME280;68111;44.728;11.290;2024-01-07T02:49:55;99688.44;;;15.71;50.59
78773;BME280;68111;44.728;11.290;2024-01-07T02:52:22;99700.84;;;15.72;50.65
78773;BME280;68111;44.728;11.290;2024-01-07T02:54:48;99700.91;;;15.71;50.57
78773;BME280;68111;44.728;11.290;2024-01-07T02:57:15;99699.09;;;15.71;50.73
78773;BME280;68111;44.728;11.290;2024-01-07T02:59:42;99697.38;;;15.70;50.66
78773;BME280;68111;44.728;11.290;2024-01-07T03:02:09;99696.44;;;15.71;50.53
78773;BME280;68111;44.728;11.290;2024-01-07T03:04:35;99702.69;;;15.70;50.56
78773;BME280;68111;44.728;11.290;2024-01-07T03:07:02;99697.38;;;15.70;50.51
78773;BME280;68111;44.728;11.290;2024-01-07T03:09:29;99691.16;;;15.70;50.50
78773;BME280;68111;44.728;11.290;2024-01-07T03:11:56;99701.81;;;15.70;50.49
78773;BME280;68111;44.728;11.290;2024-01-07T03:14:23;99695.56;;;15.71;50.40
78773;BME280;68111;44.728;11.290;2024-01-07T03:16:50;99695.56;;;15.71;50.50
78773;BME280;68111;44.728;11.290;2024-01-07T03:19:17;99693.78;;;15.71;50.31
78773;BME280;68111;44.728;11.290;2024-01-07T03:21:44;99694.69;;;15.70;50.39
78773;BME280;68111;44.728;11.290;2024-01-07T03:24:10;99681.38;;;15.70;50.22
78773;BME280;68111;44.728;11.290;2024-01-07T03:26:37;99684.97;;;15.69;50.34
78773;BME280;68111;44.728;11.290;2024-01-07T03:29:04;99690.31;;;15.69;50.16
78773;BME280;68111;44.728;11.290;2024-01-07T03:31:31;99701.88;;;15.68;50.13
78773;BME280;68111;44.728;11.290;2024-01-07T03:33:58;99695.72;;;15.66;50.25
78773;BME280;68111;44.728;11.290;2024-01-07T03:36:25;99697.59;;;15.64;50.26
78773;BME280;68111;44.728;11.290;2024-01-07T03:38:52;99690.50;;;15.63;50.33
78773;BME280;68111;44.728;11.290;2024-01-07T03:41:20;99692.31;;;15.62;50.36
78773;BME280;68111;44.728;11.290;2024-01-07T03:43:47;99692.25;;;15.64;50.32
78773;BME280;68111;44.728;11.290;2024-01-07T03:46:15;99702.97;;;15.62;50.27
78773;BME280;68111;44.728;11.290;2024-01-07T03:48:42;99707.44;;;15.62;50.43
78773;BME280;68111;44.728;11.290;2024-01-07T03:51:09;99699.44;;;15.62;50.36
78773;BME280;68111;44.728;11.290;2024-01-07T03:53:36;99706.50;;;15.63;50.37
78773;BME280;68111;44.728;11.290;2024-01-07T03:56:03;99698.44;;;15.64;50.26
78773;BME280;68111;44.728;11.290;2024-01-07T03:58:30;99701.06;;;15.66;50.22
78773;BME280;68111;44.728;11.290;2024-01-07T04:00:56;99708.13;;;15.67;50.20
78773;BME280;68111;44.728;11.290;2024-01-07T04:03:23;99703.69;;;15.67;50.28
78773;BME280;68111;44.728;11.290;2024-01-07T04:05:50;99704.53;;;15.68;50.08
78773;BME280;68111;44.728;11.290;2024-01-07T04:08:17;99700.94;;;15.69;49.80
78773;BME280;68111;44.728;11.290;2024-01-07T04:10:44;99713.34;;;15.70;49.89
78773;BME280;68111;44.728;11.290;2024-01-07T04:13:11;99711.63;;;15.69;50.01
78773;BME280;68111;44.728;11.290;2024-01-07T04:15:37;99709.00;;;15.67;50.04
78773;BME280;68111;44.728;11.290;2024-01-07T04:18:04;99713.47;;;15.67;50.07
78773;BME280;68111;44.728;11.290;2024-01-07T04:20:31;99712.59;;;15.66;50.08
78773;BME280;68111;44.728;11.290;2024-01-07T04:22:58;99715.25;;;15.66;50.03
78773;BME280;68111;44.728;11.290;2024-01-07T04:25:25;99717.91;;;15.66;49.94
78773;BME280;68111;44.728;11.290;2024-01-07T04:27:52;99721.47;;;15.67;49.96
78773;BME280;68111;44.728;11.290;2024-01-07T04:30:19;99722.38;;;15.66;50.07
78773;BME280;68111;44.728;11.290;2024-01-07T04:32:45;99717.03;;;15.66;50.01
78773;BME280;68111;44.728;11.290;2024-01-07T04:35:12;99722.38;;;15.66;49.84
78773;BME280;68111;44.728;11.290;2024-01-07T04:37:39;99721.50;;;15.65;50.10
78773;BME280;68111;44.728;11.290;2024-01-07T04:40:06;99728.63;;;15.65;49.76
78773;BME280;68111;44.728;11.290;2024-01-07T04:42:34;99729.56;;;15.64;49.93
78773;BME280;68111;44.728;11.290;2024-01-07T04:45:00;99726.88;;;15.64;50.01
78773;BME280;68111;44.728;11.290;2024-01-07T04:47:31;99729.56;;;15.64;49.90
78773;BME280;68111;44.728;11.290;2024-01-07T04:50:01;99734.00;;;15.63;49.96
78773;BME280;68111;44.728;11.290;2024-01-07T04:52:29;99737.59;;;15.62;49.99
78773;BME280;68111;44.728;11.290;2024-01-07T04:54:56;99744.72;;;15.62;49.99
78773;BME280;68111;44.728;11.290;2024-01-07T04:57:23;99742.06;;;15.62;50.03
78773;BME280;68111;44.728;11.290;2024-01-07T04:59:50;99747.38;;;15.62;49.83
78773;BME280;68111;44.728;11.290;2024-01-07T05:02:17;99743.84;;;15.61;49.85
78773;BME280;68111;44.728;11.290;2024-01-07T05:04:44;99746.50;;;15.61;49.72
78773;BME280;68111;44.728;11.290;2024-01-07T05:07:11;99751.88;;;15.60;50.00
78773;BME280;68111;44.728;11.290;2024-01-07T05:09:38;99743.88;;;15.60;50.03
78773;BME280;68111;44.728;11.290;2024-01-07T05:12:06;99750.97;;;15.61;49.75
78773;BME280;68111;44.728;11.290;2024-01-07T05:14:32;99750.09;;;15.60;49.73
78773;BME280;68111;44.728;11.290;2024-01-07T05:16:59;99745.66;;;15.61;49.87
78773;BME280;68111;44.728;11.290;2024-01-07T05:19:26;99756.19;;;15.64;49.95
78773;BME280;68111;44.728;11.290;2024-01-07T05:21:53;99750.88;;;15.64;49.71
78773;BME280;68111;44.728;11.290;2024-01-07T05:24:20;99759.72;;;15.64;49.82
78773;BME280;68111;44.728;11.290;2024-01-07T05:26:47;99757.06;;;15.64;49.84
78773;BME280;68111;44.728;11.290;2024-01-07T05:29:13;99769.50;;;15.64;49.71
78773;BME280;68111;44.728;11.290;2024-01-07T05:31:40;99762.44;;;15.63;49.69
78773;BME280;68111;44.728;11.290;2024-01-07T05:34:07;99768.69;;;15.62;49.71
78773;BME280;68111;44.728;11.290;2024-01-07T05:36:34;99772.28;;;15.61;49.73
78773;BME280;68111;44.728;11.290;2024-01-07T05:39:01;99771.44;;;15.59;49.84
78773;BME280;68111;44.728;11.290;2024-01-07T05:41:29;99775.03;;;15.58;49.89
78773;BME280;68111;44.728;11.290;2024-01-07T05:43:55;99772.44;;;15.55;49.73
78773;BME280;68111;44.728;11.290;2024-01-07T05:46:22;99769.75;;;15.55;49.87
78773;BME280;68111;44.728;11.290;2024-01-07T05:48:49;99775.97;;;15.55;49.62
78773;BME280;68111;44.728;11.290;2024-01-07T05:51:16;99779.50;;;15.56;49.98
78773;BME280;68111;44.728;11.290;2024-01-07T05:53:44;99775.03;;;15.56;49.75
78773;BME280;68111;44.728;11.290;2024-01-07T05:56:11;99768.84;;;15.56;49.71
78773;BME280;68111;44.728;11.290;2024-01-07T05:58:38;99780.38;;;15.56;49.64
78773;BME280;68111;44.728;11.290;2024-01-07T06:01:07;99782.13;;;15.57;49.60
78773;BME280;68111;44.728;11.290;2024-01-07T06:03:34;99783.91;;;15.57;49.60
78773;BME280;68111;44.728;11.290;2024-01-07T06:06:02;99779.50;;;15.56;49.73
78773;BME280;68111;44.728;11.290;2024-01-07T06:08:29;99783.94;;;15.55;49.83
78773;BME280;68111;44.728;11.290;2024-01-07T06:10:56;99784.88;;;15.54;49.71
78773;BME280;68111;44.728;11.290;2024-01-07T06:13:22;99797.28;;;15.55;49.80
78773;BME280;68111;44.728;11.290;2024-01-07T06:15:49;99795.47;;;15.56;49.72
78773;BME280;68111;44.728;11.290;2024-01-07T06:18:17;99799.94;;;15.55;49.73
78773;BME280;68111;44.728;11.290;2024-01-07T06:20:44;99795.53;;;15.54;49.47
78773;BME280;68111;44.728;11.290;2024-01-07T06:23:11;99802.66;;;15.54;49.54
78773;BME280;68111;44.728;11.290;2024-01-07T06:25:37;99800.91;;;15.53;49.55
78773;BME280;68111;44.728;11.290;2024-01-07T06:28:06;99805.38;;;15.52;49.56
78773;BME280;68111;44.728;11.290;2024-01-07T06:30:33;99808.03;;;15.52;49.34
78773;BME280;68111;44.728;11.290;2024-01-07T06:33:00;99809.81;;;15.52;49.61
78773;BME280;68111;44.728;11.290;2024-01-07T06:35:29;99813.34;;;15.52;49.27
78773;BME280;68111;44.728;11.290;2024-01-07T06:37:57;99812.44;;;15.53;49.54
78773;BME280;68111;44.728;11.290;2024-01-07T06:40:24;99811.56;;;15.53;49.42
78773;BME280;68111;44.728;11.290;2024-01-07T06:42:51;99815.09;;;15.53;49.61
78773;BME280;68111;44.728;11.290;2024-01-07T06:45:18;99820.47;;;15.52;49.64
78773;BME280;68111;44.728;11.290;2024-01-07T06:47:45;99823.97;;;15.54;49.37
78773;BME280;68111;44.728;11.290;2024-01-07T06:50:12;99816.84;;;15.54;49.52
78773;BME280;68111;44.728;11.290;2024-01-07T06:52:39;99822.13;;;15.56;49.34
78773;BME280;68111;44.728;11.290;2024-01-07T06:55:07;99822.13;;;15.56;49.46
78773;BME280;68111;44.728;11.290;2024-01-07T06:57:34;99826.56;;;15.55;49.61
78773;BME280;68111;44.728;11.290;2024-01-07T07:00:01;99827.44;;;15.56;49.56
78773;BME280;68111;44.728;11.290;2024-01-07T07:02:29;99831.03;;;15.55;49.57
78773;BME280;68111;44.728;11.290;2024-01-07T07:04:56;99831.09;;;15.53;49.42
78773;BME280;68111;44.728;11.290;2024-01-07T07:07:22;99835.50;;;15.54;49.20
78773;BME280;68111;44.728;11.290;2024-01-07T07:09:49;99839.94;;;15.54;49.42
78773;BME280;68111;44.728;11.290;2024-01-07T07:12:16;99835.50;;;15.54;49.36
78773;BME280;68111;44.728;11.290;2024-01-07T07:14:44;99841.69;;;15.55;49.55
78773;BME280;68111;44.728;11.290;2024-01-07T07:17:11;99846.09;;;15.56;49.37
78773;BME280;68111;44.728;11.290;2024-01-07T07:19:38;99851.41;;;15.56;49.24
78773;BME280;68111;44.728;11.290;2024-01-07T07:22:09;99851.41;;;15.56;49.58
78773;BME280;68111;44.728;11.290;2024-01-07T07:24:40;99853.16;;;15.57;49.43
78773;BME280;68111;44.728;11.290;2024-01-07T07:27:08;99861.16;;;15.57;49.34
78773;BME280;68111;44.728;11.290;2024-01-07T07:29:35;99860.28;;;15.56;49.38
78773;BME280;68111;44.728;11.290;2024-01-07T07:32:02;99861.16;;;15.57;49.30
78773;BME280;68111;44.728;11.290;2024-01-07T07:34:28;99862.06;;;15.56;49.25
78773;BME280;68111;44.728;11.290;2024-01-07T07:36:55;99870.06;;;15.56;49.36
78773;BME280;68111;44.728;11.290;2024-01-07T07:39:22;99870.94;;;15.56;49.30
78773;BME280;68111;44.728;11.290;2024-01-07T07:41:49;99870.06;;;15.56;49.29
78773;BME280;68111;44.728;11.290;2024-01-07T07:44:16;99869.19;;;15.55;49.54
78773;BME280;68111;44.728;11.290;2024-01-07T07:46:42;99870.06;;;15.56;49.22
78773;BME280;68111;44.728;11.290;2024-01-07T07:49:09;99881.66;;;15.55;49.50
78773;BME280;68111;44.728;11.290;2024-01-07T07:51:38;99878.97;;;15.55;49.46
78773;BME280;68111;44.728;11.290;2024-01-07T07:54:05;99881.66;;;15.55;49.26
78773;BME280;68111;44.728;11.290;2024-01-07T07:56:32;99884.31;;;15.55;49.46
78773;BME280;68111;44.728;11.290;2024-01-07T07:58:58;99886.09;;;15.54;49.27
78773;BME280;68111;44.728;11.290;2024-01-07T08:01:25;99888.75;;;15.54;49.48
78773;BME280;68111;44.728;11.290;2024-01-07T08:03:52;99888.75;;;15.54;49.49
78773;BME280;68111;44.728;11.290;2024-01-07T08:06:19;99891.38;;;15.56;49.49
78773;BME280;68111;44.728;11.290;2024-01-07T08:08:46;99887.78;;;15.57;49.58
78773;BME280;68111;44.728;11.290;2024-01-07T08:11:13;99894.91;;;15.58;49.56
78773;BME280;68111;44.728;11.290;2024-01-07T08:13:40;99886.00;;;15.59;49.54
78773;BME280;68111;44.728;11.290;2024-01-07T08:16:07;99886.84;;;15.59;49.32
78773;BME280;68111;44.728;11.290;2024-01-07T08:18:35;99894.84;;;15.61;49.46
78773;BME280;68111;44.728;11.290;2024-01-07T08:21:02;99902.81;;;15.61;49.38
78773;BME280;68111;44.728;11.290;2024-01-07T08:23:29;99901.91;;;15.62;49.22
78773;BME280;68111;44.728;11.290;2024-01-07T08:25:56;99913.47;;;15.61;49.29
78773;BME280;68111;44.728;11.290;2024-01-07T08:28:23;99920.56;;;15.62;49.30
78773;BME280;68111;44.728;11.290;2024-01-07T08:30:50;99917.94;;;15.59;49.56
78773;BME280;68111;44.728;11.290;2024-01-07T08:33:18;99920.66;;;15.57;49.73
78773;BME280;68111;44.728;11.290;2024-01-07T08:35:45;99923.34;;;15.56;49.48
78773;BME280;68111;44.728;11.290;2024-01-07T08:38:12;99928.78;;;15.53;49.58
78773;BME280;68111;44.728;11.290;2024-01-07T08:40:39;99927.91;;;15.52;49.79
78773;BME280;68111;44.728;11.290;2024-01-07T08:43:06;99925.28;;;15.51;49.73
78773;BME280;68111;44.728;11.290;2024-01-07T08:45:33;99935.94;;;15.51;49.93
78773;BME280;68111;44.728;11.290;2024-01-07T08:47:59;99927.06;;;15.50;49.81
78773;BME280;68111;44.728;11.290;2024-01-07T08:50:26;99937.78;;;15.49;49.64
78773;BME280;68111;44.728;11.290;2024-01-07T08:52:53;99932.44;;;15.49;49.79
78773;BME280;68111;44.728;11.290;2024-01-07T08:55:20;99927.13;;;15.49;50.02
78773;BME280;68111;44.728;11.290;2024-01-07T08:57:47;99930.66;;;15.49;49.71
78773;BME280;68111;44.728;11.290;2024-01-07T09:00:16;99936.84;;;15.50;49.80
78773;BME280;68111;44.728;11.290;2024-01-07T09:02:43;99934.25;;;15.48;49.83
78773;BME280;68111;44.728;11.290;2024-01-07T09:05:10;99939.53;;;15.50;49.91
78773;BME280;68111;44.728;11.290;2024-01-07T09:07:39;99938.66;;;15.49;50.01
78773;BME280;68111;44.728;11.290;2024-01-07T09:10:06;99937.78;;;15.49;49.76
78773;BME280;68111;44.728;11.290;2024-01-07T09:12:37;99946.63;;;15.49;49.98
78773;BME280;68111;44.728;11.290;2024-01-07T09:15:05;99957.25;;;15.51;49.98
78773;BME280;68111;44.728;11.290;2024-01-07T09:17:37;99956.38;;;15.50;49.99
78773;BME280;68111;44.728;11.290;2024-01-07T09:20:06;99957.19;;;15.52;49.84
78773;BME280;68111;44.728;11.290;2024-01-07T09:22:34;99958.13;;;15.51;49.87
78773;BME280;68111;44.728;11.290;2024-01-07T09:25:03;99959.00;;;15.52;49.90
78773;BME280;68111;44.728;11.290;2024-01-07T09:27:31;99959.88;;;15.52;49.79
78773;BME280;68111;44.728;11.290;2024-01-07T09:29:58;99969.66;;;15.52;49.96
78773;BME280;68111;44.728;11.290;2024-01-07T09:32:25;99974.16;;;15.50;50.17
78773;BME280;68111;44.728;11.290;2024-01-07T09:34:52;99968.09;;;15.45;50.02
78773;BME280;68111;44.728;11.290;2024-01-07T09:37:20;99970.81;;;15.43;50.29
78773;BME280;68111;44.728;11.290;2024-01-07T09:39:47;99966.38;;;15.42;50.06
78773;BME280;68111;44.728;11.290;2024-01-07T09:42:15;99980.56;;;15.43;50.26
78773;BME280;68111;44.728;11.290;2024-01-07T09:44:43;99966.34;;;15.44;50.07
78773;BME280;68111;44.728;11.290;2024-01-07T09:47:11;99969.88;;;15.44;50.08
78773;BME280;68111;44.728;11.290;2024-01-07T09:49:39;99961.03;;;15.44;50.11
78773;BME280;68111;44.728;11.290;2024-01-07T09:52:08;99970.81;;;15.43;50.28
78773;BME280;68111;44.728;11.290;2024-01-07T09:54:39;99965.53;;;15.42;50.38
78773;BME280;68111;44.728;11.290;2024-01-07T09:57:08;99975.34;;;15.40;50.26
78773;BME280;68111;44.728;11.290;2024-01-07T09:59:35;99970.03;;;15.40;50.43
78773;BME280;68111;44.728;11.290;2024-01-07T10:02:06;99972.69;;;15.40;50.31
78773;BME280;68111;44.728;11.290;2024-01-07T10:04:34;99975.25;;;15.43;50.46
78773;BME280;68111;44.728;11.290;2024-01-07T10:07:01;99974.28;;;15.45;50.38
78773;BME280;68111;44.728;11.290;2024-01-07T10:09:29;99974.25;;;15.47;50.31
78773;BME280;68111;44.728;11.290;2024-01-07T10:11:56;99972.41;;;15.49;50.26
78773;BME280;68111;44.728;11.290;2024-01-07T10:14:23;99967.91;;;15.51;50.11
78773;BME280;68111;44.728;11.290;2024-01-07T10:16:53;99966.97;;;15.52;50.24
78773;BME280;68111;44.728;11.290;2024-01-07T10:19:21;99973.19;;;15.52;50.08
78773;BME280;68111;44.728;11.290;2024-01-07T10:22:09;99978.47;;;15.54;50.28
78773;BME280;68111;44.728;11.290;2024-01-07T10:24:42;99959.81;;;15.54;50.25
78773;BME280;68111;44.728;11.290;2024-01-07T10:27:09;99967.81;;;15.54;50.10
78773;BME280;68111;44.728;11.290;2024-01-07T10:29:40;99969.56;;;15.55;50.39
78773;BME280;68111;44.728;11.290;2024-01-07T10:32:07;99974.88;;;15.55;50.11
78773;BME280;68111;44.728;11.290;2024-01-07T10:34:35;99968.69;;;15.54;50.27
78773;BME280;68111;44.728;11.290;2024-01-07T10:37:04;99964.22;;;15.55;50.18
78773;BME280;68111;44.728;11.290;2024-01-07T10:39:35;99972.22;;;15.55;50.13
78773;BME280;68111;44.728;11.290;2024-01-07T10:42:02;99965.16;;;15.54;50.12
78773;BME280;68111;44.728;11.290;2024-01-07T10:44:31;99957.16;;;15.54;50.15
78773;BME280;68111;44.728;11.290;2024-01-07T10:46:59;99962.38;;;15.57;50.34
78773;BME280;68111;44.728;11.290;2024-01-07T10:49:27;99961.50;;;15.58;50.09
78773;BME280;68111;44.728;11.290;2024-01-07T10:52:05;99962.31;;;15.61;50.08
78773;BME280;68111;44.728;11.290;2024-01-07T10:54:36;99966.72;;;15.62;49.99
78773;BME280;68111;44.728;11.290;2024-01-07T10:57:08;99964.94;;;15.63;50.10
78773;BME280;68111;44.728;11.290;2024-01-07T10:59:36;99963.09;;;15.65;50.12
78773;BME280;68111;44.728;11.290;2024-01-07T11:02:04;99955.09;;;15.65;50.02
78773;BME280;68111;44.728;11.290;2024-01-07T11:04:42;99955.97;;;15.65;49.98
78773;BME280;68111;44.728;11.290;2024-01-07T11:07:32;99957.72;;;15.66;50.05
78773;BME280;68111;44.728;11.290;2024-01-07T11:12:35;99963.91;;;15.67;49.88
78773;BME280;68111;44.728;11.290;2024-01-07T11:15:03;99963.03;;;15.66;50.16
78773;BME280;68111;44.728;11.290;2024-01-07T11:17:39;99958.59;;;15.67;50.00
78773;BME280;68111;44.728;11.290;2024-01-07T11:20:13;99959.50;;;15.66;50.03
78773;BME280;68111;44.728;11.290;2024-01-07T11:22:40;99949.75;;;15.65;49.93
78773;BME280;68111;44.728;11.290;2024-01-07T11:25:28;99950.63;;;15.65;50.17
78773;BME280;68111;44.728;11.290;2024-01-07T11:27:56;99946.19;;;15.66;49.94
78773;BME280;68111;44.728;11.290;2024-01-07T11:30:24;99947.09;;;15.65;49.93
78773;BME280;68111;44.728;11.290;2024-01-07T11:32:59;99944.44;;;15.65;49.93
78773;BME280;68111;44.728;11.290;2024-01-07T11:35:55;99942.59;;;15.67;50.00
78773;BME280;68111;44.728;11.290;2024-01-07T11:38:25;99937.28;;;15.67;49.92
78773;BME280;68111;44.728;11.290;2024-01-07T11:40:52;99938.19;;;15.66;50.00
78773;BME280;68111;44.728;11.290;2024-01-07T11:43:19;99947.06;;;15.66;49.99
78773;BME280;68111;44.728;11.290;2024-01-07T11:45:46;99939.06;;;15.66;50.13
78773;BME280;68111;44.728;11.290;2024-01-07T11:48:13;99932.84;;;15.66;50.09
78773;BME280;68111;44.728;11.290;2024-01-07T11:50:41;99939.06;;;15.66;49.91
78773;BME280;68111;44.728;11.290;2024-01-07T11:53:12;99932.81;;;15.67;50.13
78773;BME280;68111;44.728;11.290;2024-01-07T11:55:39;99931.94;;;15.67;50.35
78773;BME280;68111;44.728;11.290;2024-01-07T11:58:05;99925.75;;;15.66;50.11
78773;BME280;68111;44.728;11.290;2024-01-07T12:00:33;99932.84;;;15.66;50.20
78773;BME280;68111;44.728;11.290;2024-01-07T12:03:01;99924.88;;;15.66;50.16
78773;BME280;68111;44.728;11.290;2024-01-07T12:05:29;99920.41;;;15.66;50.29
78773;BME280;68111;44.728;11.290;2024-01-07T12:07:56;99928.34;;;15.68;50.30
78773;BME280;68111;44.728;11.290;2024-01-07T12:10:23;99922.19;;;15.66;50.10
78773;BME280;68111;44.728;11.290;2024-01-07T12:12:50;99924.88;;;15.66;50.18
78773;BME280;68111;44.728;11.290;2024-01-07T12:15:20;99923.94;;;15.67;50.39
78773;BME280;68111;44.728;11.290;2024-01-07T12:17:57;99928.44;;;15.65;50.47
78773;BME280;68111;44.728;11.290;2024-01-07T12:20:26;99932.03;;;15.64;50.20
78773;BME280;68111;44.728;11.290;2024-01-07T12:22:57;99926.81;;;15.61;50.51
78773;BME280;68111;44.728;11.290;2024-01-07T12:25:24;99937.53;;;15.58;50.46
78773;BME280;68111;44.728;11.290;2024-01-07T12:27:51;99935.78;;;15.55;50.51
78773;BME280;68111;44.728;11.290;2024-01-07T12:30:21;99923.44;;;15.53;50.73
78773;BME280;68111;44.728;11.290;2024-01-07T12:32:50;99934.19;;;15.50;50.66
78773;BME280;68111;44.728;11.290;2024-01-07T12:35:18;99942.22;;;15.48;50.87
78773;BME280;68111;44.728;11.290;2024-01-07T12:37:45;99944.06;;;15.46;50.93
78773;BME280;68111;44.728;11.290;2024-01-07T12:40:12;99941.44;;;15.45;50.99
78773;BME280;68111;44.728;11.290;2024-01-07T12:42:39;99943.38;;;15.40;51.12
78773;BME280;68111;44.728;11.290;2024-01-07T12:45:12;99939.91;;;15.37;50.91
78773;BME280;68111;44.728;11.290;2024-01-07T12:47:43;99945.31;;;15.34;51.48
78773;BME280;68111;44.728;11.290;2024-01-07T12:50:10;99941.72;;;15.35;51.24
78773;BME280;68111;44.728;11.290;2024-01-07T12:52:38;99931.19;;;15.32;51.40
78773;BME280;68111;44.728;11.290;2024-01-07T12:55:06;99944.50;;;15.32;51.66